createdAt,value
2023-03-01T00:01:30.231Z,1.90
2023-03-01T00:03:59.289Z,2.00
2023-03-01T00:06:27.307Z,2.00
2023-03-01T00:08:54.507Z,2.00
2023-03-01T00:11:27.943Z,2.00
2023-03-01T00:13:57.923Z,2.00
2023-03-01T00:16:29.692Z,2.00
2023-03-01T00:18:58.213Z,2.00
2023-03-01T00:21:26.309Z,2.00
2023-03-01T00:23:54.507Z,2.00
2023-03-01T00:26:23.850Z,2.00
2023-03-01T00:28:51.400Z,2.00
2023-03-01T00:31:22.345Z,2.00
2023-03-01T00:33:49.868Z,2.00
2023-03-01T00:36:17.478Z,1.90
2023-03-01T00:38:46.590Z,1.90
2023-03-01T00:41:16.073Z,1.90
2023-03-01T00:43:46.345Z,2.00
2023-03-01T00:46:16.829Z,2.00
2023-03-01T00:48:44.497Z,2.00
2023-03-01T00:51:18.620Z,1.90
2023-03-01T00:53:46.804Z,1.90
2023-03-01T00:56:15.872Z,1.90
2023-03-01T00:58:44.914Z,1.80
2023-03-01T01:01:20.390Z,1.80
2023-03-01T01:03:52.642Z,1.90
2023-03-01T01:06:23.571Z,1.90
2023-03-01T01:08:52.431Z,1.90
2023-03-01T01:11:20.851Z,1.90
2023-03-01T01:13:48.791Z,1.90
2023-03-01T01:16:18.130Z,2.00
2023-03-01T01:18:45.772Z,2.00
2023-03-01T01:21:15.824Z,1.90
2023-03-01T01:23:44.960Z,1.90
2023-03-01T01:26:16.000Z,1.90
2023-03-01T01:28:43.241Z,1.90
2023-03-01T01:31:10.560Z,1.90
2023-03-01T01:33:38.526Z,1.90
2023-03-01T01:36:06.994Z,1.90
2023-03-01T01:38:34.770Z,1.90
2023-03-01T01:41:02.068Z,1.90
2023-03-01T01:43:33.934Z,1.90
2023-03-01T01:46:04.748Z,1.90
2023-03-01T01:48:44.486Z,1.90
2023-03-01T01:51:16.635Z,1.90
2023-03-01T01:53:46.896Z,1.90
2023-03-01T01:56:17.141Z,1.90
2023-03-01T01:58:45.530Z,1.90
2023-03-01T02:01:13.013Z,1.90
2023-03-01T02:03:43.431Z,1.90
2023-03-01T02:06:12.773Z,1.90
2023-03-01T02:08:42.571Z,1.90
2023-03-01T02:11:11.637Z,1.90
2023-03-01T02:13:38.983Z,1.90
2023-03-01T02:16:10.700Z,1.80
2023-03-01T02:18:39.391Z,1.80
2023-03-01T02:21:31.620Z,1.80
2023-03-01T02:24:04.984Z,1.80
2023-03-01T02:26:38.350Z,1.80
2023-03-01T02:29:06.785Z,1.80
2023-03-01T02:31:49.597Z,1.80
2023-03-01T02:34:20.970Z,1.80
2023-03-01T02:36:52.923Z,1.80
2023-03-01T02:39:26.607Z,1.80
2023-03-01T02:41:57.317Z,1.80
2023-03-01T02:44:24.549Z,1.80
2023-03-01T02:46:54.255Z,1.80
2023-03-01T02:49:31.998Z,1.80
2023-03-01T02:52:18.065Z,1.80
2023-03-01T02:55:06.274Z,1.80
2023-03-01T02:57:35.361Z,1.80
2023-03-01T03:00:09.039Z,1.90
2023-03-01T03:02:38.336Z,1.80
2023-03-01T03:05:18.986Z,1.90
2023-03-01T03:07:48.125Z,1.90
2023-03-01T03:10:20.562Z,1.90
2023-03-01T03:13:00.211Z,1.90
2023-03-01T03:15:30.149Z,1.90
2023-03-01T03:17:59.206Z,1.90
2023-03-01T03:20:29.284Z,1.90
2023-03-01T03:22:57.894Z,1.90
2023-03-01T03:25:26.659Z,1.90
2023-03-01T03:27:57.636Z,1.80
2023-03-01T03:30:28.072Z,1.80
2023-03-01T03:32:56.431Z,1.90
2023-03-01T03:35:33.904Z,1.80
2023-03-01T03:38:06.915Z,1.80
2023-03-01T03:40:37.351Z,1.80
2023-03-01T03:43:07.988Z,1.80
2023-03-01T03:45:36.286Z,1.80
2023-03-01T03:48:05.973Z,1.70
2023-03-01T03:50:33.876Z,1.80
2023-03-01T03:53:03.862Z,1.80
2023-03-01T03:55:31.700Z,1.80
2023-03-01T03:58:03.304Z,1.80
2023-03-01T04:00:30.815Z,1.80
2023-03-01T04:02:58.380Z,1.90
2023-03-01T04:05:26.150Z,1.90
2023-03-01T04:08:08.416Z,1.90
2023-03-01T04:10:38.728Z,1.90
2023-03-01T04:13:07.934Z,1.90
2023-03-01T04:15:35.307Z,1.90
2023-03-01T04:18:02.637Z,1.90
2023-03-01T04:20:34.660Z,1.90
2023-03-01T04:23:22.754Z,1.90
2023-03-01T04:25:54.706Z,1.80
2023-03-01T04:28:25.161Z,1.90
2023-03-01T04:30:53.836Z,1.80
2023-03-01T04:33:22.438Z,1.80
2023-03-01T04:35:50.522Z,1.90
2023-03-01T04:38:19.489Z,1.90
2023-03-01T04:40:46.740Z,1.80
2023-03-01T04:43:15.996Z,1.80
2023-03-01T04:45:44.072Z,1.80
2023-03-01T04:48:11.180Z,1.80
2023-03-01T04:50:38.427Z,1.80
2023-03-01T04:53:05.526Z,1.80
2023-03-01T04:55:32.799Z,1.80
2023-03-01T04:57:59.966Z,1.80
2023-03-01T05:00:27.598Z,1.80
2023-03-01T05:02:58.034Z,1.80
2023-03-01T05:05:27.680Z,1.80
2023-03-01T05:07:57.751Z,1.80
2023-03-01T05:10:25.801Z,1.80
2023-03-01T05:12:54.573Z,1.80
2023-03-01T05:15:23.042Z,1.80
2023-03-01T05:17:50.923Z,1.90
2023-03-01T05:20:18.490Z,1.80
2023-03-01T05:22:45.795Z,1.80
2023-03-01T05:25:15.056Z,1.80
2023-03-01T05:27:42.445Z,1.80
2023-03-01T05:30:18.647Z,1.80
2023-03-01T05:32:50.228Z,1.90
2023-03-01T05:35:19.301Z,1.80
2023-03-01T05:37:49.725Z,1.80
2023-03-01T05:40:20.641Z,1.90
2023-03-01T05:42:53.632Z,1.90
2023-03-01T05:45:21.578Z,1.90
2023-03-01T05:47:50.506Z,1.90
2023-03-01T05:50:22.566Z,1.90
2023-03-01T05:52:53.884Z,1.90
2023-03-01T05:55:22.750Z,1.90
2023-03-01T05:57:51.035Z,1.80
2023-03-01T06:00:20.579Z,1.80
2023-03-01T06:02:47.734Z,1.80
2023-03-01T06:05:16.081Z,1.90
2023-03-01T06:07:43.897Z,1.90
2023-03-01T06:10:13.501Z,1.90
2023-03-01T06:12:43.268Z,1.90
2023-03-01T06:15:13.069Z,2.00
2023-03-01T06:17:42.433Z,2.00
2023-03-01T06:20:16.072Z,2.00
2023-03-01T06:22:44.831Z,2.00
2023-03-01T06:25:14.918Z,2.10
2023-03-01T06:27:43.371Z,2.10
2023-03-01T06:30:13.593Z,2.20
2023-03-01T06:32:43.878Z,2.20
2023-03-01T06:35:13.776Z,2.20
2023-03-01T06:37:42.157Z,2.20
2023-03-01T06:40:12.758Z,2.30
2023-03-01T06:42:42.122Z,2.30
2023-03-01T06:45:10.380Z,2.40
2023-03-01T06:47:37.730Z,2.40
2023-03-01T06:50:05.614Z,2.40
2023-03-01T06:52:33.227Z,2.40
2023-03-01T06:55:00.781Z,2.40
2023-03-01T06:57:28.293Z,2.40
2023-03-01T06:59:55.726Z,2.40
2023-03-01T07:02:23.241Z,2.40
2023-03-01T07:04:52.189Z,2.40
2023-03-01T07:07:20.139Z,2.50
2023-03-01T07:09:48.000Z,2.60
2023-03-01T07:12:15.187Z,2.60
2023-03-01T07:14:42.481Z,2.60
2023-03-01T07:17:09.607Z,2.70
2023-03-01T07:19:36.816Z,2.70
2023-03-01T07:22:05.581Z,2.70
2023-03-01T07:24:32.761Z,2.80
2023-03-01T07:26:59.923Z,2.80
2023-03-01T07:29:27.203Z,2.80
2023-03-01T07:31:54.373Z,2.90
2023-03-01T07:34:21.944Z,3.00
2023-03-01T07:36:49.597Z,3.00
2023-03-01T07:39:18.590Z,3.10
2023-03-01T07:41:46.980Z,3.10
2023-03-01T07:44:14.398Z,3.10
2023-03-01T07:46:41.430Z,3.20
2023-03-01T07:49:08.977Z,3.20
2023-03-01T07:51:36.206Z,3.20
2023-03-01T07:54:03.437Z,3.20
2023-03-01T07:56:30.956Z,3.20
2023-03-01T07:59:00.914Z,3.30
2023-03-01T08:01:28.154Z,3.30
2023-03-01T08:03:55.287Z,3.40
2023-03-01T08:06:22.457Z,3.50
2023-03-01T08:08:49.668Z,3.60
2023-03-01T08:11:17.080Z,3.60
2023-03-01T08:13:44.882Z,3.60
2023-03-01T08:16:14.699Z,3.60
2023-03-01T08:18:42.365Z,3.60
2023-03-01T08:21:13.104Z,3.60
2023-03-01T08:23:40.820Z,3.60
2023-03-01T08:26:11.231Z,3.60
2023-03-01T08:28:39.061Z,3.70
2023-03-01T08:31:28.906Z,3.60
2023-03-01T08:33:59.474Z,3.60
2023-03-01T08:36:30.008Z,3.60
2023-03-01T08:39:00.355Z,3.60
2023-03-01T08:41:28.016Z,3.50
2023-03-01T08:43:59.806Z,3.60
2023-03-01T08:46:28.112Z,3.70
2023-03-01T08:48:55.928Z,3.70
2023-03-01T08:51:24.257Z,3.60
2023-03-01T08:53:51.413Z,3.50
2023-03-01T08:56:20.524Z,3.50
2023-03-01T08:58:49.720Z,3.50
2023-03-01T09:01:19.945Z,3.60
2023-03-01T09:03:48.085Z,3.60
2023-03-01T09:06:16.834Z,3.60
2023-03-01T09:08:46.652Z,3.60
2023-03-01T09:11:17.977Z,3.60
2023-03-01T09:13:46.454Z,3.70
2023-03-01T09:16:15.964Z,3.70
2023-03-01T09:18:43.356Z,3.70
2023-03-01T09:21:14.826Z,3.70
2023-03-01T09:23:44.140Z,3.80
2023-03-01T09:26:15.575Z,3.90
2023-03-01T09:28:42.902Z,3.70
2023-03-01T09:31:10.164Z,3.90
2023-03-01T09:33:37.322Z,3.90
2023-03-01T09:36:08.328Z,3.90
2023-03-01T09:38:35.837Z,4.00
2023-03-01T09:41:03.352Z,4.10
2023-03-01T09:43:39.871Z,4.20
2023-03-01T09:46:10.977Z,4.20
2023-03-01T09:49:05.334Z,4.20
2023-03-01T09:51:37.213Z,4.20
2023-03-01T09:54:06.540Z,4.30
2023-03-01T09:56:45.112Z,4.40
2023-03-01T09:59:27.176Z,4.40
2023-03-01T10:02:05.636Z,4.40
2023-03-01T10:04:41.520Z,4.40
2023-03-01T10:07:11.931Z,4.30
2023-03-01T10:09:42.476Z,4.30
2023-03-01T10:12:13.659Z,4.30
2023-03-01T10:14:52.879Z,4.40
2023-03-01T10:17:31.775Z,4.40
2023-03-01T10:20:17.136Z,4.40
2023-03-01T10:22:47.699Z,4.40
2023-03-01T10:25:16.710Z,4.40
2023-03-01T10:27:54.975Z,4.40
2023-03-01T10:30:31.145Z,4.50
2023-03-01T10:32:59.761Z,4.60
2023-03-01T10:35:30.395Z,4.60
2023-03-01T10:38:08.395Z,4.60
2023-03-01T10:40:37.346Z,4.60
2023-03-01T10:43:06.911Z,4.70
2023-03-01T10:45:39.029Z,4.70
2023-03-01T10:48:16.743Z,4.80
2023-03-01T10:50:47.950Z,4.90
2023-03-01T10:53:25.925Z,5.00
2023-03-01T10:56:10.771Z,5.00
2023-03-01T10:58:41.062Z,5.10
2023-03-01T11:01:28.540Z,5.00
2023-03-01T11:04:06.417Z,5.10
2023-03-01T11:06:35.378Z,5.10
2023-03-01T11:09:17.109Z,5.10
2023-03-01T11:11:44.422Z,5.10
2023-03-01T11:14:26.850Z,5.20
2023-03-01T11:17:34.670Z,5.30
2023-03-01T11:20:29.148Z,5.40
2023-03-01T11:23:02.499Z,5.40
2023-03-01T11:25:42.470Z,5.40
2023-03-01T11:28:15.736Z,5.50
2023-03-01T11:31:08.942Z,5.50
2023-03-01T11:33:46.199Z,5.50
2023-03-01T11:36:14.645Z,5.60
2023-03-01T11:38:42.493Z,5.60
2023-03-01T11:41:14.669Z,5.60
2023-03-01T11:43:53.633Z,5.60
2023-03-01T11:46:48.623Z,5.50
2023-03-01T11:49:32.653Z,5.30
2023-03-01T11:52:20.095Z,5.30
2023-03-01T11:54:56.523Z,5.20
2023-03-01T11:57:51.390Z,5.20
2023-03-01T12:00:44.088Z,5.20
2023-03-01T12:03:31.508Z,5.30
2023-03-01T12:06:23.980Z,5.20
2023-03-01T12:09:30.921Z,5.30
2023-03-01T12:12:21.234Z,5.10
2023-03-01T12:15:05.329Z,5.10
2023-03-01T12:18:08.670Z,5.30
2023-03-01T12:21:03.292Z,5.20
2023-03-01T12:23:57.727Z,5.20
2023-03-01T12:26:45.706Z,5.40
2023-03-01T12:29:32.727Z,5.40
2023-03-01T12:32:16.045Z,5.50
2023-03-01T12:34:52.362Z,5.60
2023-03-01T12:37:46.844Z,5.80
2023-03-01T12:40:18.669Z,5.80
2023-03-01T12:43:06.050Z,5.80
2023-03-01T12:45:54.166Z,5.70
2023-03-01T12:48:26.998Z,5.60
2023-03-01T12:50:56.559Z,5.50
2023-03-01T12:53:30.672Z,5.30
2023-03-01T12:56:03.529Z,5.20
2023-03-01T12:58:47.429Z,5.00
2023-03-01T13:01:27.749Z,4.90
2023-03-01T13:04:01.048Z,4.80
2023-03-01T13:06:56.994Z,4.90
2023-03-01T13:09:44.910Z,4.90
2023-03-01T13:12:47.611Z,4.80
2023-03-01T13:15:36.194Z,4.80
2023-03-01T13:18:05.783Z,4.90
2023-03-01T13:20:49.009Z,4.80
2023-03-01T13:23:23.690Z,4.80
2023-03-01T13:26:12.976Z,4.80
2023-03-01T13:28:48.474Z,4.70
2023-03-01T13:31:16.950Z,4.60
2023-03-01T13:33:48.652Z,4.60
2023-03-01T13:36:37.184Z,4.60
2023-03-01T13:39:27.856Z,4.60
2023-03-01T13:41:58.639Z,4.50
2023-03-01T13:44:27.205Z,4.50
2023-03-01T13:46:59.727Z,4.40
2023-03-01T13:49:45.368Z,4.40
2023-03-01T13:52:37.138Z,4.40
2023-03-01T13:55:17.874Z,4.40
2023-03-01T13:57:49.340Z,4.40
2023-03-01T14:00:39.122Z,4.40
2023-03-01T14:03:07.982Z,4.50
2023-03-01T14:05:37.150Z,4.60
2023-03-01T14:08:06.221Z,4.50
2023-03-01T14:10:51.042Z,4.60
2023-03-01T14:13:30.471Z,4.50
2023-03-01T14:16:12.360Z,4.50
2023-03-01T14:18:53.619Z,4.40
2023-03-01T14:21:21.699Z,4.40
2023-03-01T14:23:49.967Z,4.40
2023-03-01T14:26:22.922Z,4.40
2023-03-01T14:28:51.345Z,4.50
2023-03-01T14:31:52.104Z,4.50
2023-03-01T14:34:24.431Z,4.50
2023-03-01T14:36:51.748Z,4.50
2023-03-01T14:39:22.179Z,4.50
2023-03-01T14:41:49.635Z,4.50
2023-03-01T14:44:24.117Z,4.50
2023-03-01T14:46:56.339Z,4.60
2023-03-01T14:49:28.293Z,4.60
2023-03-01T14:52:03.624Z,4.50
2023-03-01T14:54:41.996Z,4.50
2023-03-01T14:57:19.333Z,4.50
2023-03-01T14:59:48.834Z,4.50
2023-03-01T15:02:20.429Z,4.50
2023-03-01T15:04:57.729Z,4.40
2023-03-01T15:07:31.262Z,4.40
2023-03-01T15:09:59.924Z,4.40
2023-03-01T15:12:30.351Z,4.40
2023-03-01T15:15:04.450Z,4.40
2023-03-01T15:17:36.762Z,4.40
2023-03-01T15:20:07.869Z,4.30
2023-03-01T15:22:37.029Z,4.30
2023-03-01T15:25:04.668Z,4.30
2023-03-01T15:27:31.861Z,4.30
2023-03-01T15:30:01.389Z,4.30
2023-03-01T15:32:32.131Z,4.40
2023-03-01T15:35:00.854Z,4.30
2023-03-01T15:37:49.524Z,4.30
2023-03-01T15:40:32.629Z,4.30
2023-03-01T15:43:01.566Z,4.20
2023-03-01T15:45:31.478Z,4.20
2023-03-01T15:48:04.657Z,4.20
2023-03-01T15:50:35.815Z,4.20
2023-03-01T15:53:08.386Z,4.20
2023-03-01T15:55:35.654Z,4.10
2023-03-01T15:58:04.960Z,4.10
2023-03-01T16:00:32.318Z,4.10
2023-03-01T16:03:00.218Z,4.10
2023-03-01T16:05:32.546Z,4.10
2023-03-01T16:08:00.036Z,4.10
2023-03-01T16:10:27.496Z,4.10
2023-03-01T16:12:54.881Z,4.10
2023-03-01T16:15:25.375Z,4.00
2023-03-01T16:17:53.227Z,4.00
2023-03-01T16:20:29.091Z,4.00
2023-03-01T16:23:02.953Z,4.00
2023-03-01T16:25:31.833Z,4.00
2023-03-01T16:28:01.972Z,4.00
2023-03-01T16:30:29.342Z,4.00
2023-03-01T16:32:56.924Z,4.00
2023-03-01T16:35:24.517Z,4.00
2023-03-01T16:37:53.672Z,3.90
2023-03-01T16:40:29.151Z,3.90
2023-03-01T16:42:58.813Z,3.90
2023-03-01T16:45:27.116Z,3.90
2023-03-01T16:47:56.015Z,3.90
2023-03-01T16:50:24.001Z,3.90
2023-03-01T16:52:51.637Z,3.90
2023-03-01T16:55:19.345Z,3.90
2023-03-01T16:57:46.565Z,3.90
2023-03-01T17:00:14.862Z,4.00
2023-03-01T17:02:43.092Z,4.00
2023-03-01T17:05:12.879Z,3.90
2023-03-01T17:07:40.602Z,3.90
2023-03-01T17:10:10.648Z,3.80
2023-03-01T17:12:38.801Z,3.80
2023-03-01T17:15:08.030Z,3.90
2023-03-01T17:17:35.888Z,3.90
2023-03-01T17:20:04.930Z,3.90
2023-03-01T17:22:32.167Z,3.90
2023-03-01T17:24:59.318Z,3.90
2023-03-01T17:27:27.186Z,3.90
2023-03-01T17:29:54.975Z,3.90
2023-03-01T17:32:23.558Z,3.90
2023-03-01T17:34:51.073Z,3.90
2023-03-01T17:37:18.592Z,3.80
2023-03-01T17:39:45.925Z,3.80
2023-03-01T17:42:13.412Z,3.80
2023-03-01T17:44:42.349Z,3.80
2023-03-01T17:47:11.144Z,3.80
2023-03-01T17:49:38.379Z,3.80
2023-03-01T17:52:06.399Z,3.80
2023-03-01T17:54:34.520Z,3.80
2023-03-01T17:57:02.304Z,3.80
2023-03-01T17:59:32.959Z,3.90
2023-03-01T18:02:01.916Z,3.90
2023-03-01T18:04:35.325Z,3.90
2023-03-01T18:07:02.768Z,3.90
2023-03-01T18:09:30.834Z,3.90
2023-03-01T18:11:59.162Z,3.90
2023-03-01T18:14:29.912Z,3.90
2023-03-01T18:16:57.462Z,3.90
2023-03-01T18:19:25.103Z,3.90
2023-03-01T18:21:52.384Z,3.80
2023-03-01T18:24:20.013Z,3.80
2023-03-01T18:26:47.708Z,3.70
2023-03-01T18:29:15.185Z,3.70
2023-03-01T18:31:42.768Z,3.70
2023-03-01T18:34:12.015Z,3.60
2023-03-01T18:36:41.377Z,3.60
2023-03-01T18:39:09.176Z,3.50
2023-03-01T18:41:37.673Z,3.50
2023-03-01T18:44:05.792Z,3.50
2023-03-01T18:46:36.261Z,3.50
2023-03-01T18:49:05.295Z,3.50
2023-03-01T18:51:35.402Z,3.50
2023-03-01T18:54:03.126Z,3.40
2023-03-01T18:56:32.592Z,3.40
2023-03-01T18:59:00.790Z,3.40
2023-03-01T19:01:30.229Z,3.40
2023-03-01T19:03:58.437Z,3.30
2023-03-01T19:06:33.615Z,3.30
2023-03-01T19:09:01.594Z,3.30
2023-03-01T19:11:31.345Z,3.20
2023-03-01T19:14:00.452Z,3.20
2023-03-01T19:16:31.414Z,3.20
2023-03-01T19:19:01.209Z,3.20
2023-03-01T19:21:31.781Z,3.20
2023-03-01T19:24:02.544Z,3.20
2023-03-01T19:26:30.805Z,3.20
2023-03-01T19:28:58.504Z,3.20
2023-03-01T19:31:28.933Z,3.20
2023-03-01T19:34:11.357Z,3.20
2023-03-01T19:36:42.797Z,3.20
2023-03-01T19:39:11.362Z,3.20
2023-03-01T19:41:38.521Z,3.20
2023-03-01T19:44:06.128Z,3.10
2023-03-01T19:46:34.425Z,3.10
2023-03-01T19:49:03.653Z,3.10
2023-03-01T19:51:35.649Z,3.10
2023-03-01T19:54:03.736Z,3.10
2023-03-01T19:56:31.981Z,3.10
2023-03-01T19:59:00.780Z,3.10
2023-03-01T20:01:30.089Z,3.10
2023-03-01T20:03:57.637Z,3.10
2023-03-01T20:06:25.868Z,3.10
2023-03-01T20:08:53.260Z,3.10
2023-03-01T20:11:21.618Z,3.10
2023-03-01T20:13:48.912Z,3.10
2023-03-01T20:16:18.906Z,3.10
2023-03-01T20:18:46.922Z,3.10
2023-03-01T20:21:30.320Z,3.10
2023-03-01T20:23:57.447Z,3.10
2023-03-01T20:26:25.830Z,3.10
2023-03-01T20:28:55.470Z,3.10
2023-03-01T20:31:29.560Z,3.10
2023-03-01T20:33:58.088Z,3.10
2023-03-01T20:36:26.142Z,3.10
2023-03-01T20:38:54.901Z,3.20
2023-03-01T20:41:26.322Z,3.20
2023-03-01T20:43:56.638Z,3.20
2023-03-01T20:46:25.808Z,3.20
2023-03-01T20:48:54.348Z,3.20
2023-03-01T20:51:22.051Z,3.20
2023-03-01T20:53:49.768Z,3.20
2023-03-01T20:56:18.671Z,3.10
2023-03-01T20:59:04.549Z,3.20
2023-03-01T21:01:32.512Z,3.20
2023-03-01T21:03:59.841Z,3.20
2023-03-01T21:06:27.256Z,3.30
2023-03-01T21:08:55.680Z,3.20
2023-03-01T21:11:27.122Z,3.20
2023-03-01T21:13:54.686Z,3.20
2023-03-01T21:16:23.253Z,3.20
2023-03-01T21:18:50.580Z,3.30
2023-03-01T21:21:21.034Z,3.20
2023-03-01T21:23:48.613Z,3.20
2023-03-01T21:26:17.315Z,3.30
2023-03-01T21:28:44.966Z,3.20
2023-03-01T21:31:12.441Z,3.20
2023-03-01T21:33:41.290Z,3.10
2023-03-01T21:36:10.276Z,3.10
2023-03-01T21:38:40.773Z,3.10
2023-03-01T21:41:12.205Z,3.10
2023-03-01T21:43:42.002Z,3.20
2023-03-01T21:46:13.150Z,3.10
2023-03-01T21:48:44.100Z,3.20
2023-03-01T21:51:15.105Z,3.10
2023-03-01T21:53:43.278Z,3.10
2023-03-01T21:56:15.522Z,3.10
2023-03-01T21:58:42.748Z,3.10
2023-03-01T22:01:13.760Z,3.10
2023-03-01T22:03:48.696Z,3.00
2023-03-01T22:06:23.057Z,3.00
2023-03-01T22:08:55.815Z,3.10
2023-03-01T22:11:26.147Z,3.10
2023-03-01T22:13:55.726Z,3.10
2023-03-01T22:16:27.654Z,3.10
2023-03-01T22:18:55.257Z,3.10
2023-03-01T22:21:24.719Z,3.10
2023-03-01T22:23:53.391Z,3.10
2023-03-01T22:26:39.742Z,3.10
2023-03-01T22:29:11.910Z,3.20
2023-03-01T22:31:41.018Z,3.20
2023-03-01T22:34:09.048Z,3.20
2023-03-01T22:36:36.341Z,3.20
2023-03-01T22:39:04.497Z,3.20
2023-03-01T22:41:37.107Z,3.30
2023-03-01T22:44:04.652Z,3.30
2023-03-01T22:46:32.349Z,3.30
2023-03-01T22:48:59.623Z,3.30
2023-03-01T22:51:29.825Z,3.30
2023-03-01T22:53:57.788Z,3.30
2023-03-01T22:56:29.405Z,3.30
2023-03-01T22:58:59.417Z,3.30
2023-03-01T23:01:27.793Z,3.30
2023-03-01T23:03:55.453Z,3.30
2023-03-01T23:06:23.904Z,3.30
2023-03-01T23:08:54.892Z,3.40
2023-03-01T23:11:24.285Z,3.30
2023-03-01T23:13:52.357Z,3.40
2023-03-01T23:16:20.445Z,3.40
2023-03-01T23:18:47.812Z,3.40
2023-03-01T23:21:17.973Z,3.40
2023-03-01T23:23:47.297Z,3.40
2023-03-01T23:26:16.022Z,3.40
2023-03-01T23:28:43.120Z,3.40
2023-03-01T23:31:13.869Z,3.40
2023-03-01T23:33:43.397Z,3.40
2023-03-01T23:36:18.363Z,3.50
2023-03-01T23:38:47.508Z,3.50
2023-03-01T23:41:19.009Z,3.50
2023-03-01T23:43:47.517Z,3.40
2023-03-01T23:46:16.410Z,3.50
2023-03-01T23:48:45.486Z,3.50
2023-03-01T23:51:13.678Z,3.50
2023-03-01T23:53:44.059Z,3.50
2023-03-01T23:56:13.577Z,3.50
2023-03-01T23:58:41.094Z,3.60
